Accueil
METAR-TAF:

METAR-TAF

Aéroports :

Lae Nadzab

Lae, Papouasie-Nouvelle-Guinée

latitude: 6-34-11S, longitude: 146-43-34E, altitude: 73 m

Observation

Le bulletin a été fait il y a 5 heures et 2 minutes, à 09:00 UTC
Vent 5 kt de est avec des rafales jusqu'à 10 kt
Température 27°C
Humidité 89%
Pression 1008 hPa
Visibilité 10 km ou plus
Nuages épars à une hauteur de 5000 ft

METAR: AYNZ 120900Z 08005G10KT 9999 SCT050 27/25 Q1008

Heure: 00:02 (14:02 UTC)


TAF: absent

Observations et prévisions météorologiques de plus de 4000 aéroports (messages METAR et TAF).

Les stations disponibles sont représentées par des disques jaunes et rouges sur la carte.

Passer la souris dessus pour voir le nom de la station.

Cliquer dessus pour voir les observations et prévisions météorologiques.

Pour changer de carte: cliquez sur les boutons verts avec une croix noire pour zoomer, sur le bouton vert avec un tiret pour effectuer un zoom arrière, ou sur les flèches vertes pour les cartes adjacentes.


METAR-TAF: